createdAt,value
2018-11-27T00:01:20.278Z,101081.00
2018-11-27T00:06:13.538Z,101080.00
2018-11-27T00:11:06.758Z,101083.00
2018-11-27T00:16:00.010Z,101091.00
2018-11-27T00:20:53.321Z,101086.00
2018-11-27T00:25:46.609Z,101092.00
2018-11-27T00:30:39.870Z,101094.00
2018-11-27T00:35:33.171Z,101095.00
2018-11-27T00:40:26.480Z,101096.00
2018-11-27T00:45:20.675Z,101097.00
2018-11-27T00:50:17.334Z,101099.00
2018-11-27T00:55:13.149Z,101103.00
2018-11-27T01:00:11.325Z,101102.00
2018-11-27T01:05:06.021Z,101095.00
2018-11-27T01:09:59.289Z,101112.00
2018-11-27T01:14:52.600Z,101114.00
2018-11-27T01:19:45.875Z,101120.00
2018-11-27T01:24:39.135Z,101126.00
2018-11-27T01:29:32.403Z,101127.00
2018-11-27T01:34:25.681Z,101135.00
2018-11-27T01:39:18.926Z,101132.00
2018-11-27T01:44:12.223Z,101132.00
2018-11-27T01:49:06.603Z,101131.00
2018-11-27T01:53:59.847Z,101137.00
2018-11-27T01:58:53.085Z,101139.00
2018-11-27T02:03:46.375Z,101146.00
2018-11-27T02:08:39.637Z,101150.00
2018-11-27T02:13:32.925Z,101141.00
2018-11-27T02:18:26.225Z,101135.00
2018-11-27T02:23:19.479Z,101138.00
2018-11-27T02:28:12.774Z,101136.00
2018-11-27T02:33:06.222Z,101134.00
2018-11-27T02:37:59.518Z,101138.00
2018-11-27T02:42:52.768Z,101142.00
2018-11-27T02:47:47.058Z,101145.00
2018-11-27T02:52:40.362Z,101150.00
2018-11-27T02:57:33.693Z,101148.00
2018-11-27T03:02:26.955Z,101149.00
2018-11-27T03:07:20.912Z,101147.00
2018-11-27T03:12:14.187Z,101149.00
2018-11-27T03:17:07.509Z,101159.00
2018-11-27T03:22:00.757Z,101161.00
2018-11-27T03:26:54.023Z,101169.00
2018-11-27T03:31:47.297Z,101170.00
2018-11-27T03:36:41.387Z,101177.00
2018-11-27T03:41:35.189Z,101170.00
2018-11-27T03:46:28.446Z,101176.00
2018-11-27T03:51:21.725Z,101176.00
2018-11-27T03:56:15.023Z,101187.00
2018-11-27T04:01:08.317Z,101187.00
2018-11-27T04:06:01.610Z,101196.00
2018-11-27T04:10:54.863Z,101198.00
2018-11-27T04:15:48.175Z,101203.00
2018-11-27T04:20:41.429Z,101205.00
2018-11-27T04:25:34.745Z,101205.00
2018-11-27T04:30:28.041Z,101205.00
2018-11-27T04:35:22.089Z,101207.00
2018-11-27T04:40:19.843Z,101204.00
2018-11-27T04:45:17.683Z,101200.00
2018-11-27T04:50:13.623Z,101205.00
2018-11-27T04:55:09.486Z,101207.00
2018-11-27T05:00:02.798Z,101217.00
2018-11-27T05:04:56.103Z,101225.00
2018-11-27T05:09:49.395Z,101232.00
2018-11-27T05:14:42.672Z,101236.00
2018-11-27T05:19:35.954Z,101234.00
2018-11-27T05:24:29.233Z,101241.00
2018-11-27T05:29:22.503Z,101243.00
2018-11-27T05:34:15.751Z,101247.00
2018-11-27T05:39:09.520Z,101247.00
2018-11-27T05:44:02.958Z,101250.00
2018-11-27T05:48:56.246Z,101254.00
2018-11-27T05:53:49.499Z,101262.00
2018-11-27T05:58:42.751Z,101268.00
2018-11-27T06:03:36.039Z,101270.00
2018-11-27T06:08:29.850Z,101266.00
2018-11-27T06:13:23.122Z,101278.00
2018-11-27T06:18:16.411Z,101294.00
2018-11-27T06:23:09.694Z,101291.00
2018-11-27T06:28:05.544Z,101304.00
2018-11-27T06:32:58.868Z,101312.00
2018-11-27T06:37:52.136Z,101315.00
2018-11-27T06:42:45.419Z,101317.00
2018-11-27T06:47:38.770Z,101325.00
2018-11-27T06:52:32.061Z,101326.00
2018-11-27T06:57:25.361Z,101335.00
2018-11-27T07:02:18.642Z,101342.00
2018-11-27T07:07:11.882Z,101351.00
2018-11-27T07:12:05.494Z,101357.00
2018-11-27T07:16:58.724Z,101370.00
2018-11-27T07:21:52.000Z,101385.00
2018-11-27T07:26:45.288Z,101387.00
2018-11-27T07:31:39.193Z,101393.00
2018-11-27T07:36:33.177Z,101403.00
2018-11-27T07:41:26.430Z,101403.00
2018-11-27T07:46:19.682Z,101411.00
2018-11-27T07:51:12.981Z,101418.00
2018-11-27T07:56:06.487Z,101410.00
2018-11-27T08:01:00.593Z,101413.00
2018-11-27T08:05:53.863Z,101414.00
2018-11-27T08:10:48.446Z,101418.00
2018-11-27T08:15:41.841Z,101421.00
2018-11-27T08:20:35.497Z,101420.00
2018-11-27T08:25:29.359Z,101426.00
2018-11-27T08:30:23.785Z,101429.00
2018-11-27T08:35:19.800Z,101437.00
2018-11-27T08:40:14.609Z,101442.00
2018-11-27T08:45:11.698Z,101442.00
2018-11-27T08:50:09.292Z,101444.00
2018-11-27T08:55:02.707Z,101453.00
2018-11-27T08:59:56.050Z,101453.00
2018-11-27T09:04:49.297Z,101447.00
2018-11-27T09:09:42.561Z,101448.00
2018-11-27T09:14:35.823Z,101459.00
2018-11-27T09:19:29.108Z,101458.00
2018-11-27T09:24:22.448Z,101465.00
2018-11-27T09:29:15.723Z,101470.00
2018-11-27T09:34:09.025Z,101471.00
2018-11-27T09:39:02.327Z,101473.00
2018-11-27T09:43:55.687Z,101474.00
2018-11-27T09:48:49.070Z,101479.00
2018-11-27T09:53:42.375Z,101473.00
2018-11-27T09:58:35.688Z,101470.00
2018-11-27T10:03:28.951Z,101469.00
2018-11-27T10:08:22.197Z,101457.00
2018-11-27T10:13:15.482Z,101460.00
2018-11-27T10:18:08.758Z,101449.00
2018-11-27T10:23:02.009Z,101447.00
2018-11-27T10:27:55.284Z,101455.00
2018-11-27T10:34:13.360Z,101464.00
2018-11-27T10:39:08.367Z,101452.00
2018-11-27T10:44:01.610Z,101455.00
2018-11-27T10:48:54.929Z,101460.00
2018-11-27T10:53:48.199Z,101470.00
2018-11-27T10:58:41.568Z,101478.00
2018-11-27T11:03:34.869Z,101473.00
2018-11-27T11:08:28.143Z,101476.00
2018-11-27T11:13:21.482Z,101471.00
2018-11-27T11:18:14.824Z,101474.00
2018-11-27T11:23:08.106Z,101475.00
2018-11-27T11:28:01.350Z,101478.00
2018-11-27T11:32:54.691Z,101478.00
2018-11-27T11:37:48.835Z,101475.00
2018-11-27T11:42:42.160Z,101472.00
2018-11-27T11:47:35.407Z,101466.00
2018-11-27T11:52:28.691Z,101465.00
2018-11-27T11:57:21.976Z,101463.00
2018-11-27T12:02:15.270Z,101462.00
2018-11-27T12:07:08.575Z,101477.00
2018-11-27T12:12:02.980Z,101481.00
2018-11-27T12:16:56.268Z,101496.00
2018-11-27T12:21:49.622Z,101506.00
2018-11-27T12:26:42.872Z,101508.00
2018-11-27T12:31:36.195Z,101504.00
2018-11-27T12:36:29.496Z,101509.00
2018-11-27T12:41:22.780Z,101512.00
2018-11-27T12:46:16.117Z,101515.00
2018-11-27T12:51:09.847Z,101523.00
2018-11-27T12:56:02.843Z,101534.00
2018-11-27T13:00:56.135Z,101525.00
2018-11-27T13:05:49.485Z,101526.00
2018-11-27T13:10:42.756Z,101523.00
2018-11-27T13:15:38.002Z,101535.00
2018-11-27T13:20:31.312Z,101522.00
2018-11-27T13:25:25.185Z,101516.00
2018-11-27T13:30:55.871Z,101518.00
2018-11-27T13:35:49.233Z,101516.00
2018-11-27T13:40:42.546Z,101507.00
2018-11-27T13:45:36.833Z,101512.00
2018-11-27T13:50:30.158Z,101511.00
2018-11-27T13:55:23.519Z,101516.00
2018-11-27T14:00:18.293Z,101517.00
2018-11-27T14:05:13.997Z,101522.00
2018-11-27T14:10:09.805Z,101531.00
2018-11-27T14:15:03.191Z,101534.00
2018-11-27T14:19:56.470Z,101531.00
2018-11-27T14:24:49.713Z,101534.00
2018-11-27T14:29:43.110Z,101549.00
2018-11-27T14:34:36.432Z,101549.00
2018-11-27T14:39:29.737Z,101544.00
2018-11-27T14:44:23.005Z,101557.00
2018-11-27T14:49:16.283Z,101564.00
2018-11-27T14:54:09.574Z,101549.00
2018-11-27T14:59:04.094Z,101557.00
2018-11-27T15:03:57.417Z,101555.00
2018-11-27T15:08:50.739Z,101569.00
2018-11-27T15:13:43.998Z,101562.00
2018-11-27T15:18:37.297Z,101555.00
2018-11-27T15:23:30.576Z,101555.00
2018-11-27T15:28:23.914Z,101568.00
2018-11-27T15:33:18.829Z,101574.00
2018-11-27T15:38:11.336Z,101569.00
2018-11-27T15:43:04.946Z,101567.00
2018-11-27T15:47:58.294Z,101565.00
2018-11-27T15:52:51.576Z,101559.00
2018-11-27T15:57:45.634Z,101558.00
2018-11-27T16:02:38.945Z,101555.00
2018-11-27T16:07:32.229Z,101559.00
2018-11-27T16:12:25.576Z,101549.00
2018-11-27T16:17:18.905Z,101557.00
2018-11-27T16:22:12.231Z,101576.00
2018-11-27T16:27:05.580Z,101581.00
2018-11-27T16:31:58.806Z,101585.00
2018-11-27T16:36:52.106Z,101583.00
2018-11-27T16:41:45.466Z,101586.00
2018-11-27T16:46:38.803Z,101581.00
2018-11-27T16:51:32.041Z,101588.00
2018-11-27T16:56:25.854Z,101588.00
2018-11-27T17:01:19.666Z,101588.00
2018-11-27T17:06:12.973Z,101584.00
2018-11-27T17:11:06.452Z,101589.00
2018-11-27T17:15:59.751Z,101591.00
2018-11-27T17:20:53.063Z,101582.00
2018-11-27T17:25:46.415Z,101598.00
2018-11-27T17:30:44.123Z,101596.00
2018-11-27T17:35:37.500Z,101595.00
2018-11-27T17:40:30.802Z,101595.00
2018-11-27T17:45:24.131Z,101605.00
2018-11-27T17:50:17.873Z,101603.00
2018-11-27T17:55:12.438Z,101603.00
2018-11-27T18:00:29.795Z,101606.00
2018-11-27T18:05:23.125Z,101606.00
2018-11-27T18:10:16.405Z,101602.00
2018-11-27T18:15:14.339Z,101599.00
2018-11-27T18:20:10.472Z,101603.00
2018-11-27T18:25:03.853Z,101602.00
2018-11-27T18:29:57.164Z,101601.00
2018-11-27T18:34:50.489Z,101595.00
2018-11-27T18:39:43.784Z,101599.00
2018-11-27T18:44:37.061Z,101612.00
2018-11-27T18:49:30.351Z,101605.00
2018-11-27T18:54:23.702Z,101603.00
2018-11-27T18:59:17.023Z,101607.00
2018-11-27T19:04:10.319Z,101601.00
2018-11-27T19:09:06.146Z,101614.00
2018-11-27T19:13:59.463Z,101623.00
2018-11-27T19:18:52.891Z,101618.00
2018-11-27T19:23:46.168Z,101620.00
2018-11-27T19:28:39.448Z,101617.00
2018-11-27T19:33:32.721Z,101635.00
2018-11-27T19:38:25.996Z,101634.00
2018-11-27T19:43:19.278Z,101636.00
2018-11-27T19:48:13.970Z,101641.00
2018-11-27T19:53:12.261Z,101643.00
2018-11-27T19:58:05.395Z,101644.00
2018-11-27T20:02:58.687Z,101638.00
2018-11-27T20:07:52.125Z,101639.00
2018-11-27T20:12:46.109Z,101639.00
2018-11-27T20:17:39.389Z,101650.00
2018-11-27T20:22:32.685Z,101650.00
2018-11-27T20:27:25.923Z,101649.00
2018-11-27T20:32:19.223Z,101644.00
2018-11-27T20:37:12.501Z,101640.00
2018-11-27T20:42:05.941Z,101639.00
2018-11-27T20:46:59.247Z,101645.00
2018-11-27T20:51:52.535Z,101650.00
2018-11-27T20:56:45.809Z,101650.00
2018-11-27T21:01:39.160Z,101646.00
2018-11-27T21:06:32.663Z,101647.00
2018-11-27T21:11:26.049Z,101645.00
2018-11-27T21:16:19.437Z,101661.00
2018-11-27T21:21:12.708Z,101664.00
2018-11-27T21:26:06.116Z,101665.00
2018-11-27T21:30:59.379Z,101665.00
2018-11-27T21:35:52.650Z,101663.00
2018-11-27T21:40:45.940Z,101663.00
2018-11-27T21:45:39.245Z,101665.00
2018-11-27T21:50:38.275Z,101657.00
2018-11-27T21:55:31.555Z,101656.00
2018-11-27T22:00:25.667Z,101656.00
2018-11-27T22:05:18.961Z,101646.00
2018-11-27T22:10:19.987Z,101656.00
2018-11-27T22:15:20.417Z,101658.00
2018-11-27T22:20:13.739Z,101662.00
2018-11-27T22:25:09.089Z,101664.00
2018-11-27T22:30:02.416Z,101661.00
2018-11-27T22:34:55.707Z,101662.00
2018-11-27T22:39:49.947Z,101658.00
2018-11-27T22:44:43.361Z,101652.00
2018-11-27T22:49:36.633Z,101659.00
2018-11-27T22:54:30.005Z,101662.00
2018-11-27T22:59:23.637Z,101663.00
2018-11-27T23:04:16.998Z,101668.00
2018-11-27T23:09:12.516Z,101664.00
2018-11-27T23:14:06.011Z,101664.00
2018-11-27T23:18:59.321Z,101655.00
2018-11-27T23:23:52.654Z,101658.00
2018-11-27T23:28:45.977Z,101649.00
2018-11-27T23:33:39.327Z,101644.00
2018-11-27T23:38:33.412Z,101638.00
2018-11-27T23:43:26.769Z,101639.00
2018-11-27T23:48:20.032Z,101624.00
2018-11-27T23:53:13.350Z,101629.00
2018-11-27T23:58:07.209Z,101629.00
